Ana Sayfa
METAR-TAF:

METAR-TAF

Havaalanları :

Lawrence Municipal Airport

Lawrence, Kansas, Amerika Birleşik Devletleri

Enlem: 39-00-30N, Boylam: 095-12-42W, yükseklik: 253 m

Güncel hava durumu gözlemi

Rapor saat 11:52 UTC de 57 dakika önce yapıldı.
Rüzgar güney/güneydoğudan 3 kt
Sıcaklık 21°C
Nem 88%
Basınç 1011 hPa
Görüş mesafesi: 16.1 km
11000 ft yükseklikte az bulutlu

METAR: KLWC 161152Z AUTO 15003KT 10SM FEW110 21/19 A2986 RMK AO1 RAB10E20 SLP100 P0000 60001 70001 T02110194 10278 20206 50003

Saat: 07:49 (12:49 UTC)


TAF: eksik

4.000'den fazla havaalanı için hava durumu gözlemleri ve tahminleri (METAR ve TAF raporları).

Kullanılabilir istasyonlar harita üzerinde sarı ve kırmızı noktalarla gösterilir.

İstasyonun adını görmek için fareyi noktanın üzerinde gezdirin.

Sonrasında hava gözlem ve tahminlerini görmek için tıklayın.

Haritayı değiştirmek için: yaklaştırmak için siyah artı işaretli yeşil düğmeye ve uzaklaştırmak için de eksi işaretli düğmeye hızla tıklayın; bitişik haritalar için yeşil okları kullanın.


METAR-TAF: